Time;durP1;ratioP1;P1;durP2;ratioP2;P2;SDS_P1;SDS_P2;PMS_P1;PMS_P2;Temp;Humidity;BMP_temperature;BMP_pressure;BME280_temperature;BME280_humidity;BME280_pressure;Samples;Min_cycle;Max_cycle;Signal;HPM_P1;HPM_P2
2023/08/25 11:59:03;;;;;;;8.00;2.50;;;;;;;36.44;22.89;99372.65;105725;1258;61351;-70
2023/08/25 12:01:32;;;;;;;6.40;4.10;;;;;;;36.44;22.80;99374.33;105802;1258;74327;-75
2023/08/25 12:03:59;;;;;;;4.20;2.20;;;;;;;36.02;22.92;99370.44;105860;1257;61348;-73
2023/08/25 12:06:26;;;;;;;8.70;2.30;;;;;;;35.67;23.34;99363.17;105624;1265;63748;-76
2023/08/25 12:08:53;;;;;;;4.40;2.90;;;;;;;35.79;23.80;99356.95;105805;1259;61197;-73
2023/08/25 12:11:20;;;;;;;4.90;2.60;;;;;;;35.71;23.99;99359.27;105776;1262;61203;-75
2023/08/25 12:13:46;;;;;;;6.00;3.10;;;;;;;35.53;24.17;99361.52;105807;1257;65716;-73
2023/08/25 12:16:13;;;;;;;6.90;4.40;;;;;;;35.59;24.06;99364.06;105715;1260;61314;-74
2023/08/25 12:18:42;;;;;;;6.90;3.00;;;;;;;35.98;23.29;99367.34;105503;1259;64202;-74
2023/08/25 12:21:09;;;;;;;5.80;3.10;;;;;;;36.08;22.71;99367.14;105692;1258;61339;-73
2023/08/25 12:23:37;;;;;;;3.30;2.50;;;;;;;36.23;22.24;99362.67;105436;1259;61330;-77
2023/08/25 12:26:04;;;;;;;9.40;2.90;;;;;;;36.03;22.06;99360.28;105404;1258;64582;-73
2023/08/25 12:28:32;;;;;;;6.60;2.60;;;;;;;35.77;22.66;99358.58;105408;1259;61274;-73
2023/08/25 12:30:59;;;;;;;2.60;2.20;;;;;;;35.53;23.22;99353.79;105695;1260;62553;-76
2023/08/25 12:33:27;;;;;;;4.40;2.30;;;;;;;35.55;23.15;99351.45;105792;1262;61324;-76
2023/08/25 12:35:54;;;;;;;6.20;2.20;;;;;;;35.43;23.12;99350.54;105732;1258;61233;-74
2023/08/25 12:38:20;;;;;;;3.50;2.50;;;;;;;35.57;23.34;99349.33;105712;1257;64815;-76
2023/08/25 12:40:47;;;;;;;7.30;2.60;;;;;;;35.84;23.46;99350.55;105466;1264;61263;-75
2023/08/25 12:43:14;;;;;;;2.10;1.90;;;;;;;36.14;23.14;99346.49;105728;1257;63772;-75
2023/08/25 12:45:41;;;;;;;3.50;2.30;;;;;;;36.39;23.32;99340.83;105698;1257;61228;-73
2023/08/25 12:48:08;;;;;;;8.00;2.50;;;;;;;36.29;22.66;99338.33;105750;1258;61247;-75
2023/08/25 12:50:35;;;;;;;5.00;2.40;;;;;;;35.96;23.05;99336.02;105376;1265;65836;-74
2023/08/25 12:53:03;;;;;;;4.70;2.40;;;;;;;35.84;23.33;99333.16;105738;1259;61298;-74
2023/08/25 12:55:31;;;;;;;;;;;;;;;35.64;23.41;99328.63;105750;1262;62602;-75
2023/08/25 12:57:58;;;;;;;12.20;2.90;;;;;;;35.67;23.41;99327.77;105657;1262;61343;-73
2023/08/25 13:00:25;;;;;;;10.00;2.50;;;;;;;35.88;23.27;99336.58;105729;1257;61336;-73
2023/08/25 13:02:52;;;;;;;8.00;2.60;;;;;;;36.03;23.41;99340.02;105365;1265;65892;-73
2023/08/25 13:05:20;;;;;;;5.80;2.50;;;;;;;36.06;22.83;99335.42;105739;1257;61363;-74
2023/08/25 13:07:47;;;;;;;7.70;2.20;;;;;;;35.97;22.60;99331.13;105798;1260;64023;-71
2023/08/25 13:10:14;;;;;;;6.30;2.60;;;;;;;35.91;22.75;99336.85;106098;1260;61342;-75
2023/08/25 13:12:41;;;;;;;7.20;2.70;;;;;;;35.74;23.19;99335.69;105816;1257;61389;-74
2023/08/25 13:15:09;;;;;;;9.50;2.80;;;;;;;35.62;23.23;99334.55;105840;1261;66010;-74
2023/08/25 13:17:36;;;;;;;4.10;2.20;;;;;;;35.65;23.07;99339.84;105927;1257;61272;-73
2023/08/25 13:20:03;;;;;;;7.40;3.10;;;;;;;35.69;23.04;99336.48;106230;1260;64029;-75
2023/08/25 13:22:30;;;;;;;4.70;2.70;;;;;;;36.07;22.89;99336.44;105702;1258;61233;-75
2023/08/25 13:24:56;;;;;;;8.10;3.00;;;;;;;36.05;22.53;99338.23;105761;1258;61267;-72
2023/08/25 13:27:23;;;;;;;14.60;4.10;;;;;;;35.96;22.49;99341.46;105555;1257;65682;-76
2023/08/25 13:29:50;;;;;;;13.50;3.30;;;;;;;35.99;22.70;99339.54;105706;1261;61343;-68
2023/08/25 13:32:17;;;;;;;8.00;2.70;;;;;;;36.04;22.53;99341.92;105566;1260;64021;-71
2023/08/25 13:34:44;;;;;;;7.10;3.00;;;;;;;36.18;22.81;99337.23;105579;1257;61214;-71
2023/08/25 13:37:11;;;;;;;14.00;3.20;;;;;;;36.38;22.88;99336.45;105565;1260;61238;-69
2023/08/25 13:39:38;;;;;;;5.60;2.60;;;;;;;36.37;22.64;99335.05;105601;1262;65808;-68
2023/08/25 13:42:07;;;;;;;;;;;;;;;35.93;23.01;99331.69;105633;1262;61286;-73
2023/08/25 13:44:37;;;;;;;5.40;2.40;;;;;;;35.85;23.10;99333.05;105628;1260;63804;-71
2023/08/25 13:47:07;;;;;;;5.00;2.70;;;;;;;35.94;22.97;99338.69;105653;1257;61685;-71
2023/08/25 13:49:34;;;;;;;8.70;3.50;;;;;;;36.04;23.00;99334.64;105594;1260;61133;-73
2023/08/25 13:52:01;;;;;;;;;;;;;;;36.07;23.30;99333.16;105291;1263;75028;-70
2023/08/25 13:54:28;;;;;;;;;;;;;;;36.37;23.02;99332.23;105596;1260;61272;-70
2023/08/25 13:56:56;;;;;;;;;;;;;;;36.18;22.80;99330.76;105514;1258;63746;-72
2023/08/25 13:59:25;;;;;;;5.90;3.20;;;;;;;36.02;23.09;99328.96;105624;1257;61354;-72
2023/08/25 14:01:52;;;;;;;5.40;3.20;;;;;;;36.05;23.32;99332.23;105653;1258;61263;-70
2023/08/25 14:04:18;;;;;;;5.80;2.90;;;;;;;36.21;23.30;99328.39;105570;1261;66888;-72
2023/08/25 14:06:45;;;;;;;7.50;3.10;;;;;;;36.08;23.30;99328.41;105626;1261;61237;-70
2023/08/25 14:09:12;;;;;;;4.90;2.70;;;;;;;35.85;23.39;99326.76;105674;1260;63779;-74
2023/08/25 14:11:39;;;;;;;10.30;3.00;;;;;;;35.87;23.73;99328.31;105554;1262;61273;-70
2023/08/25 14:14:05;;;;;;;10.50;3.40;;;;;;;35.92;23.58;99325.64;105615;1260;61228;-70
2023/08/25 14:16:34;;;;;;;16.80;3.20;;;;;;;35.67;23.44;99327.19;105633;1261;65799;-72
2023/08/25 14:19:01;;;;;;;4.70;2.50;;;;;;;35.58;23.55;99324.34;105593;1260;61275;-71
2023/08/25 14:21:28;;;;;;;3.50;2.80;;;;;;;35.74;23.49;99326.17;105544;1260;63818;-74
2023/08/25 14:23:55;;;;;;;17.60;3.20;;;;;;;35.58;23.73;99324.83;105593;1260;61335;-72
2023/08/25 14:26:25;;;;;;;8.40;3.30;;;;;;;35.61;23.89;99327.78;105575;1257;61223;-71
2023/08/25 14:28:52;;;;;;;6.60;2.90;;;;;;;35.42;24.19;99323.37;105223;1265;65825;-73
2023/08/25 14:31:19;;;;;;;5.60;2.80;;;;;;;35.58;24.03;99325.30;105677;1260;61375;-72
2023/08/25 14:33:46;;;;;;;8.70;3.00;;;;;;;35.49;24.07;99323.63;105573;1260;63758;-72
2023/08/25 14:36:13;;;;;;;6.90;3.20;;;;;;;35.51;24.29;99325.89;105613;1259;62000;-71
2023/08/25 14:38:40;;;;;;;3.10;2.30;;;;;;;35.83;24.12;99329.64;105651;1260;61244;-74
2023/08/25 14:41:07;;;;;;;7.40;3.70;;;;;;;35.84;24.29;99327.26;105675;1261;65867;-71
2023/08/25 14:43:34;;;;;;;7.30;3.20;;;;;;;35.59;24.52;99326.88;105588;1260;62373;-71
2023/08/25 14:46:01;;;;;;;8.60;3.50;;;;;;;35.79;24.48;99329.50;105575;1260;63984;-73
2023/08/25 14:48:28;;;;;;;5.80;2.90;;;;;;;35.93;24.22;99325.70;105745;1260;61320;-71
2023/08/25 14:51:00;;;;;;;8.00;2.90;;;;;;;36.31;23.76;99323.13;105546;1259;61360;-72
2023/08/25 14:53:27;;;;;;;6.50;3.00;;;;;;;36.52;23.26;99327.60;105666;1262;65924;-75
2023/08/25 14:55:54;;;;;;;8.20;3.20;;;;;;;36.27;23.75;99324.67;105731;1260;61530;-72
2023/08/25 14:58:22;;;;;;;61.80;7.10;;;;;;;36.35;23.58;99321.52;105638;1262;62505;-72
2023/08/25 15:00:55;;;;;;;10.50;3.00;;;;;;;35.98;24.05;99321.21;105306;1260;61279;-72
2023/08/25 15:03:23;;;;;;;11.30;3.20;;;;;;;35.99;24.18;99319.04;105698;1260;61319;-73
2023/08/25 15:06:00;;;;;;;4.00;2.70;;;;;;;36.23;23.81;99318.44;105484;1265;66151;-72
2023/08/25 15:08:30;;;;;;;5.40;3.00;;;;;;;36.29;23.53;99317.17;105626;1260;61276;-71
2023/08/25 15:10:57;;;;;;;7.50;2.90;;;;;;;36.30;23.66;99317.73;105681;1260;63894;-71
2023/08/25 15:13:24;;;;;;;4.40;2.80;;;;;;;36.37;23.59;99321.64;105652;1258;61283;-72
2023/08/25 15:15:52;;;;;;;5.80;2.60;;;;;;;36.62;23.61;99325.27;105688;1258;61244;-72
2023/08/25 15:18:18;;;;;;;5.90;3.20;;;;;;;36.66;23.48;99322.08;105714;1262;65757;-72
2023/08/25 15:20:56;;;;;;;13.90;3.10;;;;;;;36.63;23.32;99319.61;105767;1261;61351;-77
2023/08/25 15:23:23;;;;;;;;;;;;;;;36.68;23.41;99320.77;105706;1260;62580;-74
2023/08/25 15:25:51;;;;;;;6.30;3.10;;;;;;;36.72;23.40;99318.27;105709;1259;61353;-73
2023/08/25 15:28:18;;;;;;;6.80;2.80;;;;;;;36.69;23.43;99322.16;105768;1258;61225;-71
2023/08/25 15:30:45;;;;;;;7.40;2.90;;;;;;;36.67;23.43;99326.95;105730;1261;65759;-73
2023/08/25 15:33:11;;;;;;;4.80;2.50;;;;;;;36.59;23.49;99324.80;105775;1260;61312;-69
2023/08/25 15:35:41;;;;;;;13.50;3.70;;;;;;;36.28;24.05;99319.84;105661;1257;63741;-71
2023/08/25 15:38:08;;;;;;;13.90;3.20;;;;;;;36.06;24.15;99320.48;105705;1260;61383;-72
2023/08/25 15:40:35;;;;;;;9.40;3.40;;;;;;;35.68;24.64;99325.41;105737;1262;61349;-73
2023/08/25 15:43:02;;;;;;;3.50;2.30;;;;;;;35.23;24.98;99327.54;105705;1261;65926;-71
2023/08/25 15:45:28;;;;;;;8.60;3.40;;;;;;;34.98;25.14;99324.78;105609;1259;62267;-73
2023/08/25 15:47:55;;;;;;;17.00;4.00;;;;;;;35.11;25.27;99326.50;105579;1262;63984;-70
2023/08/25 15:50:23;;;;;;;4.30;2.60;;;;;;;35.10;25.40;99321.89;105598;1257;61365;-70
2023/08/25 15:52:49;;;;;;;5.60;3.00;;;;;;;34.92;25.52;99322.67;105498;1257;61391;-70
2023/08/25 15:55:16;;;;;;;10.00;3.00;;;;;;;34.55;26.00;99316.97;105651;1261;65728;-72
2023/08/25 15:57:43;;;;;;;6.30;2.80;;;;;;;34.26;26.32;99309.38;105342;1264;61385;-71
2023/08/25 16:00:11;;;;;;;10.00;4.60;;;;;;;34.14;26.40;99299.73;105578;1260;64024;-71
2023/08/25 16:02:40;;;;;;;9.40;3.80;;;;;;;33.97;26.49;99294.30;105565;1261;61397;-71
2023/08/25 16:05:08;;;;;;;9.20;3.20;;;;;;;33.87;26.77;99295.65;105328;1260;61328;-75
2023/08/25 16:07:35;;;;;;;8.80;3.50;;;;;;;33.70;26.79;99296.18;105613;1262;65721;-69
2023/08/25 16:10:02;;;;;;;9.10;3.80;;;;;;;33.60;27.16;99297.42;105298;1257;61304;-72
2023/08/25 16:12:29;;;;;;;13.60;4.60;;;;;;;33.37;27.33;99303.86;105676;1257;63831;-70
2023/08/25 16:14:56;;;;;;;13.50;5.10;;;;;;;33.20;27.86;99305.87;105533;1262;61350;-68
2023/08/25 16:17:23;;;;;;;9.90;5.00;;;;;;;32.95;28.10;99306.40;105201;1260;61280;-71
2023/08/25 16:19:49;;;;;;;12.60;5.30;;;;;;;32.61;28.58;99306.05;105618;1260;65950;-68
2023/08/25 16:22:16;;;;;;;11.30;5.90;;;;;;;32.51;29.12;99301.52;105688;1260;61284;-70
2023/08/25 16:24:43;;;;;;;9.70;5.30;;;;;;;32.38;29.78;99304.06;105585;1260;63792;-71
2023/08/25 16:27:10;;;;;;;13.10;6.50;;;;;;;32.24;29.92;99301.46;105549;1260;61308;-70
2023/08/25 16:29:37;;;;;;;18.10;8.20;;;;;;;32.11;30.18;99298.44;105632;1258;61257;-71
2023/08/25 16:32:04;;;;;;;20.20;10.20;;;;;;;32.00;30.14;99300.41;105591;1262;65840;-71
2023/08/25 16:34:31;;;;;;;18.70;9.00;;;;;;;31.93;30.05;99301.77;105627;1257;61254;-70
2023/08/25 16:37:00;;;;;;;13.40;6.60;;;;;;;31.72;30.13;99299.08;105586;1260;72893;-69
2023/08/25 16:39:27;;;;;;;31.10;7.90;;;;;;;31.28;31.18;99292.01;105566;1258;61662;-68
2023/08/25 16:41:54;;;;;;;26.60;8.80;;;;;;;31.14;31.38;99288.47;105225;1257;61506;-67
2023/08/25 16:44:20;;;;;;;31.30;10.70;;;;;;;30.93;31.99;99289.52;105633;1262;75137;-69
2023/08/25 16:46:47;;;;;;;26.90;11.00;;;;;;;30.63;32.10;99289.52;105334;1259;69006;-74
2023/08/25 16:49:15;;;;;;;16.40;10.10;;;;;;;30.42;32.21;99285.96;105574;1262;73435;-72
2023/08/25 16:51:42;;;;;;;25.40;10.30;;;;;;;30.52;31.86;99287.77;105245;1263;61422;-74
2023/08/25 16:54:08;;;;;;;20.70;9.70;;;;;;;30.52;31.87;99289.77;105600;1262;61210;-77
2023/08/25 16:56:35;;;;;;;30.10;7.40;;;;;;;30.37;32.12;99291.17;105543;1262;75441;-72
2023/08/25 16:59:02;;;;;;;20.60;7.20;;;;;;;30.29;32.15;99291.78;105442;1260;69124;-71
2023/08/25 17:01:30;;;;;;;40.00;10.60;;;;;;;30.15;32.63;99295.52;105262;1260;73124;-72
2023/08/25 17:03:57;;;;;;;24.80;8.80;;;;;;;30.15;33.36;99294.66;105413;1259;61257;-78
2023/08/25 17:06:24;;;;;;;33.80;9.40;;;;;;;29.88;34.19;99293.23;105438;1261;61219;-77
2023/08/25 17:08:51;;;;;;;65.30;9.70;;;;;;;29.76;34.77;99294.31;105465;1262;75040;-72
2023/08/25 17:11:18;;;;;;;32.50;7.70;;;;;;;29.64;35.45;99295.90;105421;1262;67366;-71
2023/08/25 17:13:45;;;;;;;34.70;8.10;;;;;;;29.64;35.10;99292.67;105453;1260;73017;-71
2023/08/25 17:16:12;;;;;;;35.80;8.50;;;;;;;29.63;34.76;99294.25;105410;1262;61310;-70
2023/08/25 17:18:39;;;;;;;32.40;9.50;;;;;;;29.63;35.16;99293.86;105490;1260;61338;-71
2023/08/25 17:21:06;;;;;;;21.00;9.10;;;;;;;29.28;35.37;99294.94;105512;1262;75182;-71
2023/08/25 17:23:33;;;;;;;31.30;9.70;;;;;;;28.99;35.75;99294.96;105516;1260;69156;-71
2023/08/25 17:26:00;;;;;;;38.80;9.50;;;;;;;28.84;36.07;99292.48;105423;1262;72297;-72
2023/08/25 17:28:27;;;;;;;25.20;7.60;;;;;;;28.78;36.21;99296.14;105374;1260;61329;-76
2023/08/25 17:31:06;;;;;;;25.00;7.80;;;;;;;28.82;36.58;99300.11;105462;1258;62232;-70
2023/08/25 17:33:37;;;;;;;26.40;8.50;;;;;;;28.63;36.37;99303.19;105415;1262;74493;-71
2023/08/25 17:36:06;;;;;;;24.60;9.90;;;;;;;28.64;36.76;99299.58;105274;1266;68978;-72
2023/08/25 17:38:34;;;;;;;44.80;10.60;;;;;;;28.72;36.75;99300.98;105460;1259;72246;-69
2023/08/25 17:41:04;;;;;;;31.90;11.40;;;;;;;28.58;36.99;99297.71;105487;1262;61337;-70
2023/08/25 17:43:33;;;;;;;37.80;11.70;;;;;;;28.72;36.74;99301.85;105481;1260;61338;-72
2023/08/25 17:46:00;;;;;;;;;;;;;;;28.69;37.08;99298.27;105501;1262;75428;-72
2023/08/25 17:48:27;;;;;;;29.50;11.20;;;;;;;28.73;36.92;99299.17;105247;1264;69084;-72
2023/08/25 17:50:54;;;;;;;124.60;20.30;;;;;;;28.76;37.08;99300.23;108766;1258;73164;-71
2023/08/25 17:53:21;;;;;;;91.60;18.60;;;;;;;28.53;37.58;99293.16;108919;1259;58903;-71
2023/08/25 17:55:48;;;;;;;65.60;16.80;;;;;;;28.59;37.69;99297.48;108967;1260;58917;-71
2023/08/25 17:58:15;;;;;;;66.20;17.70;;;;;;;28.49;37.58;99297.46;106891;1259;73937;-70
2023/08/25 18:00:42;;;;;;;72.50;17.90;;;;;;;28.63;37.45;99305.02;105596;1261;69185;-70
2023/08/25 18:03:10;;;;;;;59.00;18.10;;;;;;;28.65;37.68;99307.33;105651;1261;73251;-70
2023/08/25 18:05:40;;;;;;;57.30;17.20;;;;;;;28.50;37.76;99309.08;105137;1265;61420;-71
2023/08/25 18:08:07;;;;;;;68.20;19.60;;;;;;;28.42;38.12;99307.40;105581;1258;61221;-75
2023/08/25 18:10:38;;;;;;;79.40;19.50;;;;;;;28.51;38.38;99302.14;105683;1261;74594;-69
2023/08/25 18:13:05;;;;;;;96.20;27.60;;;;;;;28.55;38.28;99302.41;105261;1264;68585;-70
2023/08/25 18:15:31;;;;;;;137.50;33.00;;;;;;;28.50;38.60;99300.63;105523;1260;73074;-70
2023/08/25 18:17:58;;;;;;;132.10;30.50;;;;;;;28.48;38.89;99294.55;105597;1260;61231;-72
2023/08/25 18:20:25;;;;;;;167.80;30.90;;;;;;;28.56;39.01;99290.92;105427;1262;61340;-69
2023/08/25 18:22:52;;;;;;;127.40;30.40;;;;;;;28.47;39.34;99288.61;105430;1262;74936;-68
2023/08/25 18:25:19;;;;;;;98.80;31.40;;;;;;;28.45;39.36;99292.85;105460;1260;69030;-69
2023/08/25 18:27:46;;;;;;;94.30;31.20;;;;;;;28.53;39.15;99292.70;105265;1259;73127;-69
2023/08/25 18:30:19;;;;;;;84.70;30.80;;;;;;;28.56;39.27;99291.15;105456;1260;61669;-69
2023/08/25 18:32:46;;;;;;;68.20;29.60;;;;;;;28.65;39.10;99292.23;105495;1262;62249;-69
2023/08/25 18:35:13;;;;;;;103.40;33.00;;;;;;;28.62;38.83;99295.61;105431;1260;73257;-70
2023/08/25 18:37:42;;;;;;;72.60;28.40;;;;;;;28.68;38.60;99299.37;105445;1260;69206;-70
2023/08/25 18:40:10;;;;;;;54.80;23.40;;;;;;;28.69;38.37;99299.55;105437;1262;72826;-76
2023/08/25 18:42:37;;;;;;;54.90;22.60;;;;;;;28.61;38.37;99299.23;105495;1260;61363;-69
2023/08/25 18:45:05;;;;;;;41.20;22.10;;;;;;;28.53;38.26;99297.19;105597;1257;61346;-72
2023/08/25 18:47:32;;;;;;;47.60;22.30;;;;;;;28.59;38.05;99300.56;105786;1261;74566;-72
2023/08/25 18:50:00;;;;;;;22.90;10.00;;;;;;;28.64;37.38;99304.79;105657;1260;68591;-73
2023/08/25 18:52:28;;;;;;;36.40;16.50;;;;;;;28.58;37.29;99309.00;105617;1261;72370;-73
2023/08/25 18:54:55;;;;;;;25.30;11.90;;;;;;;28.63;37.23;99313.77;105446;1264;61253;-73
2023/08/25 18:57:25;;;;;;;26.80;15.00;;;;;;;28.55;37.00;99308.34;105732;1257;61327;-73
2023/08/25 18:59:55;;;;;;;43.50;19.70;;;;;;;28.44;37.49;99305.07;105725;1262;75108;-74
2023/08/25 19:02:21;;;;;;;44.60;18.40;;;;;;;28.41;37.97;99297.36;105686;1262;67363;-74
2023/08/25 19:04:49;;;;;;;53.10;22.90;;;;;;;28.40;38.41;99298.71;105751;1263;73129;-72
2023/08/25 19:07:15;;;;;;;46.40;23.10;;;;;;;28.30;38.71;99303.42;105731;1260;61338;-73
2023/08/25 19:09:43;;;;;;;44.30;19.80;;;;;;;28.18;38.74;99308.11;105756;1262;61350;-74
2023/08/25 19:12:11;;;;;;;48.10;20.80;;;;;;;28.24;38.29;99306.51;105440;1264;73168;-74
2023/08/25 19:14:38;;;;;;;38.80;23.20;;;;;;;28.34;38.52;99313.63;105600;1263;67381;-73
2023/08/25 19:17:05;;;;;;;48.30;25.20;;;;;;;28.39;38.55;99310.92;105684;1262;72656;-72
2023/08/25 19:19:31;;;;;;;36.30;22.60;;;;;;;28.44;39.10;99305.15;105707;1257;61678;-73
2023/08/25 19:21:58;;;;;;;46.20;25.80;;;;;;;28.46;38.72;99307.92;105395;1260;61747;-73
2023/08/25 19:24:25;;;;;;;33.10;21.60;;;;;;;28.03;39.12;99305.41;105724;1263;74569;-74
2023/08/25 19:26:52;;;;;;;46.50;22.10;;;;;;;28.00;39.35;99300.50;105379;1266;68691;-74
2023/08/25 19:29:19;;;;;;;63.90;23.50;;;;;;;28.04;39.44;99305.20;105766;1262;72542;-74
2023/08/25 19:31:46;;;;;;;70.80;21.50;;;;;;;28.05;39.83;99299.36;105393;1263;61479;-72
2023/08/25 19:34:12;;;;;;;91.70;23.00;;;;;;;28.12;39.92;99302.52;105682;1262;62479;-71
2023/08/25 19:36:39;;;;;;;81.30;23.00;;;;;;;28.11;40.31;99300.86;105702;1257;74824;-74
2023/08/25 19:39:06;;;;;;;66.30;22.00;;;;;;;27.97;40.56;99305.28;105693;1262;68557;-73
2023/08/25 19:41:34;;;;;;;108.40;24.30;;;;;;;28.11;40.70;99305.58;105713;1257;72633;-74
2023/08/25 19:44:01;;;;;;;62.80;25.40;;;;;;;28.01;40.81;99304.14;105675;1260;62146;-74
2023/08/25 19:46:28;;;;;;;64.10;25.50;;;;;;;27.99;41.71;99303.09;105751;1263;63052;-73
2023/08/25 19:48:59;;;;;;;59.40;24.80;;;;;;;28.03;41.72;99301.63;105719;1262;74721;-72
2023/08/25 19:51:26;;;;;;;70.50;27.00;;;;;;;28.11;41.76;99304.23;105694;1261;68538;-73
2023/08/25 19:53:53;;;;;;;61.80;24.40;;;;;;;28.07;42.19;99305.62;105718;1257;72314;-74
2023/08/25 19:56:20;;;;;;;63.80;27.10;;;;;;;28.15;41.85;99307.04;105664;1261;62348;-74
2023/08/25 19:58:51;;;;;;;55.40;24.80;;;;;;;28.19;42.10;99305.11;105768;1262;61337;-73
2023/08/25 20:01:18;;;;;;;83.00;26.30;;;;;;;28.16;42.43;99309.10;105437;1263;74182;-72
2023/08/25 20:03:46;;;;;;;82.60;26.10;;;;;;;28.02;42.77;99306.75;105701;1262;68625;-74
2023/08/25 20:06:13;;;;;;;76.30;23.90;;;;;;;27.98;42.94;99304.42;105414;1263;72463;-75
2023/08/25 20:08:39;;;;;;;74.40;26.10;;;;;;;28.09;43.11;99300.91;105679;1263;61924;-74
2023/08/25 20:11:07;;;;;;;66.90;25.80;;;;;;;28.30;42.66;99301.69;105719;1257;61326;-74
2023/08/25 20:13:36;;;;;;;47.90;25.10;;;;;;;28.26;43.09;99303.38;105348;1263;74383;-72
2023/08/25 20:16:03;;;;;;;56.60;21.70;;;;;;;28.16;43.58;99302.57;105728;1257;67182;-73
2023/08/25 20:18:30;;;;;;;55.00;22.40;;;;;;;28.25;43.56;99302.66;105333;1264;72266;-72
2023/08/25 20:20:57;;;;;;;49.30;22.10;;;;;;;28.22;43.78;99304.74;105675;1259;61685;-73
2023/08/25 20:23:24;;;;;;;50.90;22.80;;;;;;;28.31;43.72;99311.63;105694;1263;61434;-72
2023/08/25 20:25:54;;;;;;;57.70;23.10;;;;;;;28.17;44.13;99314.64;105582;1257;74351;-73
2023/08/25 20:28:21;;;;;;;69.90;24.20;;;;;;;28.22;44.41;99314.05;105739;1261;68387;-76
2023/08/25 20:30:48;;;;;;;56.40;23.90;;;;;;;28.19;44.60;99312.78;105685;1258;72412;-73
2023/08/25 20:33:16;;;;;;;66.60;24.70;;;;;;;28.18;44.77;99308.02;105716;1261;61742;-72
2023/08/25 20:35:43;;;;;;;;;;;;;;;28.20;44.84;99310.10;105396;1261;61387;-74
2023/08/25 20:38:10;;;;;;;54.30;24.20;;;;;;;28.10;45.12;99309.67;105677;1271;74574;-73
2023/08/25 20:40:37;;;;;;;67.80;21.70;;;;;;;28.22;44.94;99305.46;105636;1263;178919;-74
2023/08/25 20:43:04;;;;;;;44.00;21.00;;;;;;;28.18;44.86;99303.45;105716;1257;72479;-73
2023/08/25 20:45:31;;;;;;;46.20;21.00;;;;;;;28.04;44.90;99301.33;105700;1258;61957;-73
2023/08/25 20:47:58;;;;;;;41.60;20.80;;;;;;;27.92;45.27;99302.63;105691;1262;61346;-73
2023/08/25 20:50:25;;;;;;;41.70;19.60;;;;;;;28.00;45.08;99298.45;105727;1263;74608;-73
2023/08/25 20:52:51;;;;;;;37.10;19.20;;;;;;;28.20;44.43;99296.77;105749;1258;68407;-73
2023/08/25 20:55:19;;;;;;;24.80;14.30;;;;;;;28.21;43.94;99296.14;105640;1262;71490;-73
2023/08/25 20:57:45;;;;;;;29.20;15.90;;;;;;;27.89;43.72;99293.53;105639;1257;61715;-72
2023/08/25 21:00:12;;;;;;;29.20;15.10;;;;;;;27.99;42.77;99292.14;105670;1257;61277;-73
2023/08/25 21:02:45;;;;;;;41.00;18.10;;;;;;;28.08;42.51;99293.42;105674;1257;74633;-73
2023/08/25 21:05:13;;;;;;;37.80;15.00;;;;;;;28.06;42.51;99293.79;105680;1262;67357;-73
2023/08/25 21:07:40;;;;;;;27.50;13.70;;;;;;;28.00;42.31;99297.04;105694;1263;72354;-73
2023/08/25 21:10:08;;;;;;;34.60;17.30;;;;;;;28.03;42.57;99297.94;105720;1258;61613;-73
2023/08/25 21:12:35;;;;;;;28.90;13.00;;;;;;;28.08;42.48;99299.33;105751;1258;61153;-73
2023/08/25 21:15:01;;;;;;;24.10;12.90;;;;;;;28.04;42.07;99297.31;105685;1263;74434;-72
2023/08/25 21:17:28;;;;;;;29.90;12.50;;;;;;;28.05;41.85;99300.17;105658;1257;68434;-72
2023/08/25 21:19:55;;;;;;;19.90;11.80;;;;;;;27.85;42.02;99300.15;105672;1262;72909;-73
2023/08/25 21:22:22;;;;;;;20.90;12.10;;;;;;;27.85;41.94;99300.58;105365;1257;61897;-74
2023/08/25 21:24:49;;;;;;;27.50;12.70;;;;;;;27.90;41.77;99300.47;105678;1263;61273;-72
2023/08/25 21:27:16;;;;;;;31.40;14.00;;;;;;;27.91;42.35;99304.89;105722;1258;74225;-74
2023/08/25 21:29:42;;;;;;;30.10;14.40;;;;;;;27.79;42.83;99299.29;105689;1262;68486;-74
2023/08/25 21:32:09;;;;;;;28.10;13.20;;;;;;;27.73;42.82;99298.66;105697;1263;72393;-78
2023/08/25 21:34:38;;;;;;;35.50;14.00;;;;;;;27.68;42.67;99293.64;105679;1257;61989;-73
2023/08/25 21:37:08;;;;;;;;;;;;;;;27.83;42.24;99291.55;105690;1263;61331;-72
2023/08/25 21:39:34;;;;;;;29.10;13.30;;;;;;;27.65;42.44;99287.06;105644;1263;74849;-73
2023/08/25 21:42:01;;;;;;;33.80;13.10;;;;;;;27.64;42.15;99286.75;105697;1263;68376;-72
2023/08/25 21:44:28;;;;;;;32.40;13.60;;;;;;;27.64;42.17;99282.48;105597;1257;72612;-73
2023/08/25 21:46:55;;;;;;;27.80;12.80;;;;;;;27.61;42.21;99281.11;105678;1263;61567;-74
2023/08/25 21:49:22;;;;;;;29.90;12.70;;;;;;;27.65;42.10;99277.21;105706;1263;61337;-74
2023/08/25 21:51:49;;;;;;;38.30;13.00;;;;;;;27.68;42.01;99276.31;105740;1263;74899;-74
2023/08/25 21:54:15;;;;;;;23.70;11.80;;;;;;;27.62;41.97;99277.10;105667;1261;68552;-77
2023/08/25 21:56:42;;;;;;;29.80;12.10;;;;;;;27.65;41.63;99275.25;105695;1261;72533;-74
2023/08/25 21:59:09;;;;;;;26.20;11.10;;;;;;;27.64;41.47;99277.44;105774;1262;62245;-72
2023/08/25 22:01:36;;;;;;;20.10;10.40;;;;;;;27.50;41.26;99277.42;105377;1258;61359;-72
2023/08/25 22:04:03;;;;;;;17.70;10.70;;;;;;;27.54;41.06;99272.83;105733;1263;74887;-73
2023/08/25 22:06:31;;;;;;;20.00;12.40;;;;;;;27.62;41.07;99273.71;105706;1258;68653;-74
2023/08/25 22:08:58;;;;;;;18.20;10.70;;;;;;;27.75;41.02;99274.11;105665;1263;72420;-73
2023/08/25 22:11:25;;;;;;;19.20;10.40;;;;;;;27.82;40.44;99281.38;105684;1262;61699;-74
2023/08/25 22:13:51;;;;;;;16.30;9.50;;;;;;;27.69;40.37;99273.64;105703;1257;61237;-74
2023/08/25 22:16:18;;;;;;;21.30;12.20;;;;;;;27.72;40.34;99275.26;105651;1257;74338;-73
2023/08/25 22:18:45;;;;;;;16.90;11.30;;;;;;;27.66;40.45;99277.39;105648;1257;68508;-74
2023/08/25 22:21:12;;;;;;;21.30;12.10;;;;;;;27.57;40.85;99276.11;105647;1261;72416;-73
2023/08/25 22:23:39;;;;;;;28.30;10.50;;;;;;;27.49;41.39;99278.91;105669;1261;61209;-75
2023/08/25 22:26:06;;;;;;;19.20;10.70;;;;;;;27.37;41.50;99277.57;105651;1262;61247;-75
2023/08/25 22:28:33;;;;;;;23.00;11.60;;;;;;;27.45;41.52;99275.55;105460;1263;74395;-75
2023/08/25 22:30:59;;;;;;;25.70;11.90;;;;;;;27.42;42.23;99272.13;105637;1257;68596;-74
2023/08/25 22:33:26;;;;;;;26.70;13.40;;;;;;;27.29;42.70;99274.25;105407;1257;72492;-74
2023/08/25 22:35:56;;;;;;;25.30;12.70;;;;;;;27.14;43.29;99276.67;105622;1257;61236;-78
2023/08/25 22:38:23;;;;;;;28.70;13.00;;;;;;;27.12;43.54;99280.27;105349;1264;61354;-78
2023/08/25 22:40:49;;;;;;;27.80;14.20;;;;;;;26.97;44.09;99281.85;105689;1262;74470;-79
2023/08/25 22:43:16;;;;;;;24.80;12.70;;;;;;;26.85;44.22;99278.77;105680;1257;68627;-73
2023/08/25 22:45:43;;;;;;;23.90;13.10;;;;;;;26.76;44.67;99275.87;105681;1257;71644;-74
2023/08/25 22:48:10;;;;;;;21.50;12.60;;;;;;;26.83;44.48;99277.17;105715;1257;61242;-73
2023/08/25 22:50:36;;;;;;;20.80;12.60;;;;;;;26.77;44.46;99273.45;105681;1257;61269;-74
2023/08/25 22:53:04;;;;;;;21.40;11.40;;;;;;;26.74;44.57;99275.69;105702;1262;74352;-75
2023/08/25 22:55:30;;;;;;;26.50;12.10;;;;;;;26.66;44.39;99270.53;105681;1263;68644;-77
2023/08/25 22:57:57;;;;;;;19.10;11.40;;;;;;;26.69;44.23;99270.48;105648;1258;72581;-75
2023/08/25 23:00:26;;;;;;;18.90;11.30;;;;;;;26.72;43.98;99271.27;105324;1263;61247;-74
2023/08/25 23:02:52;;;;;;;27.90;10.60;;;;;;;26.74;43.83;99271.52;105657;1262;61183;-74
2023/08/25 23:05:20;;;;;;;23.10;10.50;;;;;;;26.77;43.67;99269.73;105325;1265;74474;-74
2023/08/25 23:07:46;;;;;;;24.50;11.90;;;;;;;26.66;44.26;99275.16;105665;1257;68578;-73
2023/08/25 23:10:13;;;;;;;22.20;12.00;;;;;;;26.68;44.27;99276.70;105679;1258;71176;-73
2023/08/25 23:12:40;;;;;;;32.90;12.70;;;;;;;26.46;44.90;99271.50;105623;1257;61541;-73
2023/08/25 23:15:07;;;;;;;25.40;12.30;;;;;;;26.23;46.05;99266.55;105673;1263;61224;-79